Time;durP1;ratioP1;P1;durP2;ratioP2;P2;SDS_P1;SDS_P2;PMS_P1;PMS_P2;Temp;Humidity;BMP_temperature;BMP_pressure;BME280_temperature;BME280_humidity;BME280_pressure;Samples;Min_cycle;Max_cycle;Signal;HPM_P1;HPM_P2
2023/08/24 00:01:26;;;;;;;4.75;2.65;;;;;;;;;;5082837;28;20541;-69
2023/08/24 00:03:52;;;;;;;5.03;2.60;;;;;;;;;;5083789;28;20032;-70
2023/08/24 00:06:19;;;;;;;5.53;2.80;;;;;;;;;;5083028;28;20089;-69
2023/08/24 00:08:45;;;;;;;6.05;2.83;;;;;;;;;;5085523;28;20031;-70
2023/08/24 00:11:14;;;;;;;7.47;2.97;;;;;;;;;;5083707;28;20538;-69
2023/08/24 00:13:51;;;;;;;7.25;2.70;;;;;;;;;;5077293;28;20058;-71
2023/08/24 00:16:18;;;;;;;5.78;3.08;;;;;;;;;;5065526;28;20060;-70
2023/08/24 00:18:44;;;;;;;8.07;3.33;;;;;;;;;;5084050;28;20023;-69
2023/08/24 00:21:11;;;;;;;12.80;3.20;;;;;;;;;;5079150;28;20078;-69
2023/08/24 00:23:38;;;;;;;7.93;2.78;;;;;;;;;;5083821;28;20648;-69
2023/08/24 00:26:04;;;;;;;5.68;2.88;;;;;;;;;;5083900;28;20023;-69
2023/08/24 00:28:30;;;;;;;6.68;3.15;;;;;;;;;;5083226;28;20020;-69
2023/08/24 00:30:56;;;;;;;7.20;2.80;;;;;;;;;;5085387;28;20519;-69
2023/08/24 00:33:23;;;;;;;5.15;2.90;;;;;;;;;;5081756;28;20051;-70
2023/08/24 00:35:49;;;;;;;7.40;3.08;;;;;;;;;;5087469;28;20499;-69
2023/08/24 00:38:15;;;;;;;4.97;3.05;;;;;;;;;;5085920;28;20144;-68
2023/08/24 00:40:43;;;;;;;4.68;3.10;;;;;;;;;;5087588;28;20092;-69
2023/08/24 00:43:10;;;;;;;4.43;2.92;;;;;;;;;;5083267;28;20063;-69
2023/08/24 00:45:36;;;;;;;5.32;3.03;;;;;;;;;;5069663;28;20054;-69
2023/08/24 00:48:02;;;;;;;8.00;3.83;;;;;;;;;;5085605;28;20027;-69
2023/08/24 00:50:28;;;;;;;5.45;2.60;;;;;;;;;;5087532;28;20043;-69
2023/08/24 00:52:55;;;;;;;6.07;3.08;;;;;;;;;;5085075;28;20024;-69
2023/08/24 00:55:21;;;;;;;6.95;3.15;;;;;;;;;;5084547;28;20036;-69
2023/08/24 00:57:48;;;;;;;6.63;3.25;;;;;;;;;;5083002;28;20111;-68
2023/08/24 01:00:14;;;;;;;6.78;3.03;;;;;;;;;;5084075;28;20252;-69
2023/08/24 01:02:41;;;;;;;7.18;3.33;;;;;;;;;;5084391;28;20131;-69
2023/08/24 01:05:07;;;;;;;5.60;2.92;;;;;;;;;;5085889;28;20055;-69
2023/08/24 01:07:34;;;;;;;5.82;3.00;;;;;;;;;;5081865;28;20028;-69
2023/08/24 01:10:01;;;;;;;4.85;2.97;;;;;;;;;;5086599;28;20627;-68
2023/08/24 01:12:41;;;;;;;5.72;2.90;;;;;;;;;;5082569;28;20518;-69
2023/08/24 01:15:09;;;;;;;4.38;2.60;;;;;;;;;;5083271;28;20435;-68
2023/08/24 01:17:36;;;;;;;4.68;2.67;;;;;;;;;;5083135;28;20500;-69
2023/08/24 01:20:04;;;;;;;7.63;2.70;;;;;;;;;;5086385;28;20023;-69
2023/08/24 01:22:36;;;;;;;6.38;3.20;;;;;;;;;;5084656;28;20036;-68
2023/08/24 01:25:24;;;;;;;3.90;2.80;;;;;;;;;;5087914;28;20578;-68
2023/08/24 01:27:51;;;;;;;9.18;3.00;;;;;;;;;;5080673;28;20028;-68
2023/08/24 01:30:19;;;;;;;4.32;2.67;;;;;;;;;;5085584;28;20024;-69
2023/08/24 01:32:45;;;;;;;8.00;3.00;;;;;;;;;;5085253;28;20058;-68
2023/08/24 01:35:12;;;;;;;5.45;2.80;;;;;;;;;;5077963;28;20084;-68
2023/08/24 01:37:38;;;;;;;7.57;2.92;;;;;;;;;;5059339;28;20537;-69
2023/08/24 01:40:14;;;;;;;4.00;2.80;;;;;;;;;;5061994;28;20383;-69
2023/08/24 01:42:42;;;;;;;5.15;2.75;;;;;;;;;;5063368;28;20025;-69
2023/08/24 01:45:09;;;;;;;7.25;3.28;;;;;;;;;;5060849;28;20039;-69
2023/08/24 01:47:36;;;;;;;6.07;2.90;;;;;;;;;;5065334;28;20562;-69
2023/08/24 01:50:02;;;;;;;5.90;2.90;;;;;;;;;;5064126;28;20025;-69
2023/08/24 01:52:29;;;;;;;3.47;2.53;;;;;;;;;;5065813;28;20032;-69
2023/08/24 01:54:56;;;;;;;3.95;2.90;;;;;;;;;;5066364;28;20115;-69
2023/08/24 01:57:22;;;;;;;6.07;2.72;;;;;;;;;;5064398;28;20023;-69
2023/08/24 01:59:48;;;;;;;5.78;2.83;;;;;;;;;;5059268;28;20055;-69
2023/08/24 02:02:14;;;;;;;6.57;3.03;;;;;;;;;;5044769;28;20017;-69
2023/08/24 02:04:40;;;;;;;7.60;2.83;;;;;;;;;;5060674;28;20028;-69
2023/08/24 02:07:06;;;;;;;8.93;2.92;;;;;;;;;;5054556;28;20028;-69
2023/08/24 02:09:32;;;;;;;4.18;2.60;;;;;;;;;;5060324;28;20020;-69
2023/08/24 02:11:58;;;;;;;5.72;3.40;;;;;;;;;;5060804;28;20043;-69
2023/08/24 02:14:25;;;;;;;5.13;2.80;;;;;;;;;;5056395;28;20021;-68
2023/08/24 02:16:51;;;;;;;6.78;3.08;;;;;;;;;;5062651;28;20059;-69
2023/08/24 02:19:17;;;;;;;5.63;2.85;;;;;;;;;;5061849;28;20033;-69
2023/08/24 02:21:43;;;;;;;8.18;3.00;;;;;;;;;;5062345;28;20027;-69
2023/08/24 02:24:09;;;;;;;7.18;3.90;;;;;;;;;;5056481;28;20124;-69
2023/08/24 02:26:35;;;;;;;8.45;3.13;;;;;;;;;;5061447;28;20023;-68
2023/08/24 02:29:01;;;;;;;6.22;3.28;;;;;;;;;;5062832;28;20111;-68
2023/08/24 02:31:28;;;;;;;5.20;2.97;;;;;;;;;;5064614;28;20051;-70
2023/08/24 02:33:54;;;;;;;4.35;2.75;;;;;;;;;;5061475;28;20032;-69
2023/08/24 02:36:20;;;;;;;6.75;3.03;;;;;;;;;;5073815;28;20544;-69
2023/08/24 02:38:47;;;;;;;6.60;2.40;;;;;;;;;;5090725;28;20081;-70
2023/08/24 02:41:14;;;;;;;5.05;2.83;;;;;;;;;;5086125;28;20024;-69
2023/08/24 02:43:40;;;;;;;10.35;3.25;;;;;;;;;;5067017;28;20020;-69
2023/08/24 02:46:08;;;;;;;9.38;2.90;;;;;;;;;;5091768;28;20329;-69
2023/08/24 02:48:34;;;;;;;4.93;2.80;;;;;;;;;;5074390;28;20032;-69
2023/08/24 02:51:01;;;;;;;5.78;2.92;;;;;;;;;;5081920;28;20028;-69
2023/08/24 02:53:28;;;;;;;7.00;3.35;;;;;;;;;;5083574;28;20545;-68
2023/08/24 02:55:54;;;;;;;5.22;2.97;;;;;;;;;;5064798;28;20038;-69
2023/08/24 02:58:20;;;;;;;6.05;3.05;;;;;;;;;;5088027;28;20035;-69
2023/08/24 03:00:47;;;;;;;4.03;2.70;;;;;;;;;;5070150;28;20032;-69
2023/08/24 03:03:16;;;;;;;5.32;2.95;;;;;;;;;;5084278;28;21147;-68
2023/08/24 03:05:52;;;;;;;3.92;2.53;;;;;;;;;;5076429;28;20466;-68
2023/08/24 03:08:18;;;;;;;4.25;2.70;;;;;;;;;;5087604;28;20084;-69
2023/08/24 03:10:44;;;;;;;5.90;3.58;;;;;;;;;;5083031;28;20032;-69
2023/08/24 03:13:10;;;;;;;5.50;2.95;;;;;;;;;;5064523;28;20032;-69
2023/08/24 03:15:37;;;;;;;6.53;2.70;;;;;;;;;;5084986;28;20028;-68
2023/08/24 03:18:03;;;;;;;4.10;3.10;;;;;;;;;;5062511;28;20036;-68
2023/08/24 03:20:29;;;;;;;7.13;2.65;;;;;;;;;;5083019;28;20032;-68
2023/08/24 03:22:56;;;;;;;3.75;2.63;;;;;;;;;;5086415;28;20472;-68
2023/08/24 03:25:22;;;;;;;6.05;3.28;;;;;;;;;;5080570;28;20024;-69
2023/08/24 03:27:48;;;;;;;3.72;2.55;;;;;;;;;;5083663;28;20024;-68
2023/08/24 03:30:14;;;;;;;6.88;3.22;;;;;;;;;;5084639;28;20511;-68
2023/08/24 03:32:41;;;;;;;6.53;3.28;;;;;;;;;;5068047;28;20457;-69
2023/08/24 03:35:07;;;;;;;6.10;2.70;;;;;;;;;;5082712;28;20068;-68
2023/08/24 03:37:34;;;;;;;6.47;3.45;;;;;;;;;;5067220;28;20024;-69
2023/08/24 03:40:00;;;;;;;4.32;2.78;;;;;;;;;;5066168;28;20436;-68
2023/08/24 03:42:26;;;;;;;8.85;2.97;;;;;;;;;;5061713;28;20399;-68
2023/08/24 03:44:52;;;;;;;6.68;2.78;;;;;;;;;;5053653;28;20057;-69
2023/08/24 03:47:18;;;;;;;5.13;3.10;;;;;;;;;;5041659;28;20024;-68
2023/08/24 03:49:44;;;;;;;4.88;2.40;;;;;;;;;;5068720;28;20450;-68
2023/08/24 03:52:11;;;;;;;5.45;3.20;;;;;;;;;;5066808;28;20032;-69
2023/08/24 03:54:37;;;;;;;9.93;3.13;;;;;;;;;;5064257;28;20072;-69
2023/08/24 03:57:04;;;;;;;4.90;2.90;;;;;;;;;;5067518;28;20147;-69
2023/08/24 03:59:30;;;;;;;5.93;3.00;;;;;;;;;;5067719;28;20364;-69
2023/08/24 04:01:59;;;;;;;5.68;2.88;;;;;;;;;;5067919;28;20113;-68
2023/08/24 04:04:25;;;;;;;7.43;3.40;;;;;;;;;;5048393;28;20024;-69
2023/08/24 04:06:51;;;;;;;5.32;2.95;;;;;;;;;;5068215;28;20547;-68
2023/08/24 04:09:17;;;;;;;7.82;2.97;;;;;;;;;;5067988;28;20021;-69
2023/08/24 04:11:43;;;;;;;5.90;2.80;;;;;;;;;;5063384;28;20056;-68
2023/08/24 04:14:10;;;;;;;5.00;2.83;;;;;;;;;;5066015;28;20585;-69
2023/08/24 04:16:36;;;;;;;5.75;3.75;;;;;;;;;;5068525;28;20075;-69
2023/08/24 04:19:02;;;;;;;3.45;2.60;;;;;;;;;;5063541;28;20036;-69
2023/08/24 04:21:28;;;;;;;4.35;2.97;;;;;;;;;;5069404;28;20037;-69
2023/08/24 04:23:54;;;;;;;7.72;3.42;;;;;;;;;;5063371;28;20025;-68
2023/08/24 04:26:21;;;;;;;5.22;3.47;;;;;;;;;;5068004;28;20024;-68
2023/08/24 04:28:47;;;;;;;5.95;2.60;;;;;;;;;;5065090;28;20031;-69
2023/08/24 04:31:13;;;;;;;8.50;3.47;;;;;;;;;;5068514;28;20111;-68
2023/08/24 04:33:39;;;;;;;4.20;2.92;;;;;;;;;;5068034;28;20032;-70
2023/08/24 04:36:05;;;;;;;5.65;3.17;;;;;;;;;;5080327;28;20048;-68
2023/08/24 04:38:31;;;;;;;4.50;2.97;;;;;;;;;;5083335;28;20074;-68
2023/08/24 04:40:58;;;;;;;7.60;3.05;;;;;;;;;;5084769;28;20029;-69
2023/08/24 04:43:24;;;;;;;9.75;3.20;;;;;;;;;;5086433;28;20023;-68
2023/08/24 04:45:54;;;;;;;4.57;3.35;;;;;;;;;;5085631;28;20028;-68
2023/08/24 04:48:24;;;;;;;4.35;2.88;;;;;;;;;;5086569;28;20387;-68
2023/08/24 04:50:50;;;;;;;4.95;3.85;;;;;;;;;;5085803;28;20039;-69
2023/08/24 04:53:18;;;;;;;4.22;2.95;;;;;;;;;;5084193;28;20480;-69
2023/08/24 04:55:44;;;;;;;4.90;2.70;;;;;;;;;;5083285;28;20031;-68
2023/08/24 04:58:11;;;;;;;9.00;3.28;;;;;;;;;;5079899;28;20024;-68
2023/08/24 05:00:38;;;;;;;5.68;3.30;;;;;;;;;;5083513;28;20163;-68
2023/08/24 05:03:07;;;;;;;5.63;2.80;;;;;;;;;;5083947;28;20041;-69
2023/08/24 05:05:34;;;;;;;4.68;2.90;;;;;;;;;;5086066;28;20052;-68
2023/08/24 05:08:01;;;;;;;7.38;3.33;;;;;;;;;;5083590;28;20512;-69
2023/08/24 05:10:31;;;;;;;7.13;3.10;;;;;;;;;;5057992;28;20024;-68
2023/08/24 05:12:57;;;;;;;4.90;3.17;;;;;;;;;;5084583;28;20032;-68
2023/08/24 05:15:23;;;;;;;5.60;2.63;;;;;;;;;;5083712;28;20058;-68
2023/08/24 05:17:52;;;;;;;4.75;3.00;;;;;;;;;;5084051;28;20420;-68
2023/08/24 05:20:19;;;;;;;7.22;3.30;;;;;;;;;;5083984;28;20024;-68
2023/08/24 05:22:45;;;;;;;4.60;2.97;;;;;;;;;;5085063;28;20095;-68
2023/08/24 05:25:11;;;;;;;5.15;3.00;;;;;;;;;;5082598;28;20437;-68
2023/08/24 05:27:38;;;;;;;5.75;3.47;;;;;;;;;;5086393;28;20065;-69
2023/08/24 05:30:05;;;;;;;7.78;2.83;;;;;;;;;;5086607;28;20085;-68
2023/08/24 05:32:32;;;;;;;5.05;2.90;;;;;;;;;;5085934;28;20043;-68
2023/08/24 05:34:59;;;;;;;5.10;2.78;;;;;;;;;;5085682;28;20040;-68
2023/08/24 05:37:25;;;;;;;4.30;3.15;;;;;;;;;;5083735;28;20157;-68
2023/08/24 05:39:51;;;;;;;5.65;2.88;;;;;;;;;;5085307;28;20131;-68
2023/08/24 05:42:17;;;;;;;4.70;3.70;;;;;;;;;;5088205;28;20031;-68
2023/08/24 05:44:43;;;;;;;7.70;3.38;;;;;;;;;;5085414;28;20035;-68
2023/08/24 05:47:09;;;;;;;5.22;3.58;;;;;;;;;;5084521;28;20095;-69
2023/08/24 05:49:36;;;;;;;5.32;3.20;;;;;;;;;;5087962;28;20049;-69
2023/08/24 05:52:02;;;;;;;4.47;2.95;;;;;;;;;;5085852;28;20036;-68
2023/08/24 05:54:28;;;;;;;5.63;3.83;;;;;;;;;;5083513;28;20020;-68
2023/08/24 05:56:54;;;;;;;7.30;3.42;;;;;;;;;;5083443;28;20217;-68
2023/08/24 05:59:21;;;;;;;5.32;3.22;;;;;;;;;;5088731;28;20047;-68
2023/08/24 06:01:47;;;;;;;5.13;3.08;;;;;;;;;;5083652;28;20158;-69
2023/08/24 06:04:13;;;;;;;3.92;3.20;;;;;;;;;;5087992;28;20676;-68
2023/08/24 06:06:39;;;;;;;6.72;3.28;;;;;;;;;;5083892;28;20028;-68
2023/08/24 06:09:05;;;;;;;6.03;3.08;;;;;;;;;;5086611;28;20024;-68
2023/08/24 06:11:33;;;;;;;3.80;2.65;;;;;;;;;;5078979;28;20035;-68
2023/08/24 06:13:59;;;;;;;5.65;3.15;;;;;;;;;;5085206;28;20035;-68
2023/08/24 06:16:25;;;;;;;7.68;3.50;;;;;;;;;;5085924;28;20391;-68
2023/08/24 06:18:51;;;;;;;7.60;3.83;;;;;;;;;;5085162;28;20466;-68
2023/08/24 06:21:17;;;;;;;11.27;4.20;;;;;;;;;;5082092;28;20129;-68
2023/08/24 06:23:44;;;;;;;10.77;4.68;;;;;;;;;;5085473;28;20403;-69
2023/08/24 06:26:11;;;;;;;11.38;4.80;;;;;;;;;;5087162;28;20146;-69
2023/08/24 06:28:37;;;;;;;11.73;5.15;;;;;;;;;;5085360;28;20032;-69
2023/08/24 06:31:04;;;;;;;37.00;7.95;;;;;;;;;;5085703;28;20034;-69
2023/08/24 06:33:33;;;;;;;13.70;5.68;;;;;;;;;;5086315;28;20031;-68
2023/08/24 06:36:00;;;;;;;15.80;6.10;;;;;;;;;;5081386;28;20078;-69
2023/08/24 06:38:26;;;;;;;25.65;7.78;;;;;;;;;;5078890;28;20034;-68
2023/08/24 06:40:55;;;;;;;14.32;6.03;;;;;;;;;;5080929;28;20043;-68
2023/08/24 06:43:21;;;;;;;19.83;6.72;;;;;;;;;;5082593;28;20500;-69
2023/08/24 06:45:49;;;;;;;18.52;7.10;;;;;;;;;;5083680;28;20052;-68
2023/08/24 06:48:15;;;;;;;17.35;8.00;;;;;;;;;;5061633;28;20028;-68
2023/08/24 06:50:41;;;;;;;14.13;6.45;;;;;;;;;;5079796;28;20100;-68
2023/08/24 06:53:07;;;;;;;15.27;6.93;;;;;;;;;;5075503;28;20429;-68
2023/08/24 06:55:33;;;;;;;18.30;8.35;;;;;;;;;;5082258;28;20032;-69
2023/08/24 06:58:00;;;;;;;16.38;8.07;;;;;;;;;;5083678;28;20404;-68
2023/08/24 07:00:26;;;;;;;17.80;7.88;;;;;;;;;;5079911;28;20434;-68
2023/08/24 07:02:53;;;;;;;15.35;6.95;;;;;;;;;;5078546;28;20020;-68
2023/08/24 07:05:19;;;;;;;13.00;6.63;;;;;;;;;;5079940;28;20153;-68
2023/08/24 07:07:49;;;;;;;10.95;5.47;;;;;;;;;;5078772;28;20044;-68
2023/08/24 07:10:16;;;;;;;10.00;4.72;;;;;;;;;;5081274;28;20029;-68
2023/08/24 07:12:44;;;;;;;9.75;5.28;;;;;;;;;;5093332;28;20499;-68
2023/08/24 07:15:11;;;;;;;7.25;5.10;;;;;;;;;;5080478;28;20027;-67
2023/08/24 07:17:37;;;;;;;10.23;5.18;;;;;;;;;;5096062;28;20124;-69
2023/08/24 07:20:13;;;;;;;7.80;5.13;;;;;;;;;;5083616;28;20055;-68
2023/08/24 07:22:39;;;;;;;6.90;4.28;;;;;;;;;;5077584;28;20165;-68
2023/08/24 07:25:06;;;;;;;10.40;5.15;;;;;;;;;;5082731;28;20445;-68
2023/08/24 07:27:35;;;;;;;8.77;4.20;;;;;;;;;;5085421;28;20035;-68
2023/08/24 07:30:05;;;;;;;7.80;4.72;;;;;;;;;;5081915;28;20064;-68
2023/08/24 07:32:32;;;;;;;7.38;3.88;;;;;;;;;;5074712;28;20507;-68
2023/08/24 07:35:01;;;;;;;12.10;4.95;;;;;;;;;;5081979;28;20040;-68
2023/08/24 07:37:28;;;;;;;8.60;3.38;;;;;;;;;;5073260;28;20036;-68
2023/08/24 07:39:54;;;;;;;6.68;3.38;;;;;;;;;;5082851;28;20036;-68
2023/08/24 07:42:23;;;;;;;7.18;3.00;;;;;;;;;;5081313;28;20031;-68
2023/08/24 07:44:49;;;;;;;7.18;2.75;;;;;;;;;;5083775;28;20028;-69
2023/08/24 07:47:16;;;;;;;4.43;2.70;;;;;;;;;;5080890;28;20476;-68
2023/08/24 07:49:44;;;;;;;4.55;2.60;;;;;;;;;;5079488;28;20077;-69
2023/08/24 07:52:13;;;;;;;4.20;2.22;;;;;;;;;;5075999;28;20016;-68
2023/08/24 07:54:40;;;;;;;6.22;2.78;;;;;;;;;;5079619;28;20107;-68
2023/08/24 07:57:07;;;;;;;5.07;2.20;;;;;;;;;;5084108;28;20283;-68
2023/08/24 07:59:33;;;;;;;2.88;2.28;;;;;;;;;;5081856;28;20024;-68
2023/08/24 08:01:59;;;;;;;4.90;1.92;;;;;;;;;;5083866;28;20566;-68
2023/08/24 08:04:25;;;;;;;3.60;2.10;;;;;;;;;;5084531;28;20020;-68
2023/08/24 08:06:51;;;;;;;3.92;2.08;;;;;;;;;;5081189;28;20063;-68
2023/08/24 08:09:18;;;;;;;2.53;2.15;;;;;;;;;;5084677;28;20020;-68
2023/08/24 08:11:45;;;;;;;4.15;2.30;;;;;;;;;;5081289;28;20040;-68
2023/08/24 08:14:11;;;;;;;2.78;1.80;;;;;;;;;;5081417;28;20035;-68
2023/08/24 08:16:37;;;;;;;4.43;2.20;;;;;;;;;;5082310;28;20093;-68
2023/08/24 08:19:04;;;;;;;2.47;1.98;;;;;;;;;;5086402;28;20420;-67
2023/08/24 08:21:30;;;;;;;6.00;1.90;;;;;;;;;;5086703;28;20532;-68
2023/08/24 08:23:56;;;;;;;3.55;2.10;;;;;;;;;;5074375;28;20480;-69
2023/08/24 08:26:22;;;;;;;4.80;2.03;;;;;;;;;;5076374;28;20388;-68
2023/08/24 08:28:49;;;;;;;4.95;2.85;;;;;;;;;;5079142;28;20129;-69
2023/08/24 08:31:15;;;;;;;4.80;2.05;;;;;;;;;;5081357;28;20040;-68
2023/08/24 08:33:41;;;;;;;2.33;2.05;;;;;;;;;;5084860;28;20119;-69
2023/08/24 08:36:07;;;;;;;2.85;1.85;;;;;;;;;;5085629;28;20140;-68
2023/08/24 08:38:33;;;;;;;5.00;2.10;;;;;;;;;;5067405;28;20443;-68
2023/08/24 08:41:04;;;;;;;4.90;2.40;;;;;;;;;;5054817;28;20216;-68
2023/08/24 08:43:30;;;;;;;3.50;1.85;;;;;;;;;;5072990;28;20032;-68
2023/08/24 08:45:57;;;;;;;4.68;2.20;;;;;;;;;;5072640;28;20016;-68
2023/08/24 08:48:23;;;;;;;3.03;1.95;;;;;;;;;;5080452;28;20024;-68
2023/08/24 08:50:50;;;;;;;4.43;2.25;;;;;;;;;;5074866;28;20036;-66
2023/08/24 08:53:16;;;;;;;4.07;2.42;;;;;;;;;;5080083;28;20048;-68
2023/08/24 08:55:43;;;;;;;6.18;2.17;;;;;;;;;;5084492;28;20024;-68
2023/08/24 08:58:09;;;;;;;3.17;1.70;;;;;;;;;;5082266;28;20036;-68
2023/08/24 09:00:36;;;;;;;3.53;1.70;;;;;;;;;;5084530;28;20027;-67
2023/08/24 09:03:04;;;;;;;3.45;1.73;;;;;;;;;;5085715;28;20012;-68
2023/08/24 09:05:30;;;;;;;5.60;2.17;;;;;;;;;;5081514;28;20441;-67
2023/08/24 09:07:59;;;;;;;2.20;1.60;;;;;;;;;;5081572;28;20112;-67
2023/08/24 09:10:26;;;;;;;2.58;1.70;;;;;;;;;;5074396;28;20510;-68
2023/08/24 09:12:52;;;;;;;4.70;1.77;;;;;;;;;;5074024;28;20075;-68
2023/08/24 09:15:26;;;;;;;6.10;1.80;;;;;;;;;;5073166;28;20515;-68
2023/08/24 09:17:52;;;;;;;3.85;2.08;;;;;;;;;;5074142;28;20538;-68
2023/08/24 09:20:19;;;;;;;3.63;2.20;;;;;;;;;;5071559;28;20032;-67
2023/08/24 09:22:45;;;;;;;7.45;3.25;;;;;;;;;;5055154;28;20446;-68
2023/08/24 09:25:12;;;;;;;7.28;2.00;;;;;;;;;;5075785;28;20035;-68
2023/08/24 09:27:38;;;;;;;3.60;2.00;;;;;;;;;;5073160;28;20063;-67
2023/08/24 09:30:07;;;;;;;2.65;1.70;;;;;;;;;;5074437;28;20396;-67
2023/08/24 09:32:34;;;;;;;4.53;1.88;;;;;;;;;;5053390;28;20486;-67
2023/08/24 09:35:05;;;;;;;3.03;1.70;;;;;;;;;;5077512;28;20147;-68
2023/08/24 09:37:35;;;;;;;3.88;1.85;;;;;;;;;;5064622;28;20534;-67
2023/08/24 09:40:08;;;;;;;3.13;1.75;;;;;;;;;;5061244;28;20534;-66
2023/08/24 09:42:44;;;;;;;6.82;2.35;;;;;;;;;;5067456;28;20051;-65
2023/08/24 09:45:14;;;;;;;4.20;1.95;;;;;;;;;;5077278;28;20070;-65
2023/08/24 09:47:40;;;;;;;2.92;1.70;;;;;;;;;;5070122;28;20024;-64
2023/08/24 09:50:08;;;;;;;3.75;2.17;;;;;;;;;;5066424;28;20032;-65
2023/08/24 09:52:36;;;;;;;5.03;1.83;;;;;;;;;;5063702;28;20032;-64
2023/08/24 09:55:07;;;;;;;3.15;1.67;;;;;;;;;;5064702;28;20163;-65
2023/08/24 09:57:38;;;;;;;1.88;1.75;;;;;;;;;;5065350;28;20036;-65
2023/08/24 10:00:14;;;;;;;4.03;1.85;;;;;;;;;;5071713;28;20741;-64
2023/08/24 10:02:49;;;;;;;2.47;1.60;;;;;;;;;;5065690;28;20039;-64
2023/08/24 10:05:20;;;;;;;1.92;1.70;;;;;;;;;;5074477;28;20020;-64
2023/08/24 10:07:50;;;;;;;5.28;3.05;;;;;;;;;;5086390;28;20020;-64
2023/08/24 10:10:16;;;;;;;3.42;2.03;;;;;;;;;;5074732;28;20032;-63
2023/08/24 10:12:48;;;;;;;5.18;2.03;;;;;;;;;;5073831;28;20035;-64
2023/08/24 10:15:15;;;;;;;5.50;2.25;;;;;;;;;;5068199;28;20513;-62
2023/08/24 10:17:42;;;;;;;3.28;1.80;;;;;;;;;;5067797;28;20035;-67
2023/08/24 10:20:10;;;;;;;5.05;1.85;;;;;;;;;;5073682;28;20422;-67
2023/08/24 10:22:37;;;;;;;4.70;2.03;;;;;;;;;;5073569;28;20024;-69
2023/08/24 10:25:03;;;;;;;3.45;2.08;;;;;;;;;;5071959;28;20059;-68
2023/08/24 10:27:29;;;;;;;2.65;1.73;;;;;;;;;;5068928;28;20038;-68
2023/08/24 10:29:57;;;;;;;3.47;1.88;;;;;;;;;;5073615;28;20032;-67
2023/08/24 10:32:24;;;;;;;3.22;1.77;;;;;;;;;;5067387;28;20392;-69
2023/08/24 10:34:51;;;;;;;2.25;1.75;;;;;;;;;;5056868;28;20036;-69
2023/08/24 10:37:17;;;;;;;2.25;2.05;;;;;;;;;;5040484;28;20116;-70
2023/08/24 10:39:47;;;;;;;2.28;1.80;;;;;;;;;;5028674;28;20033;-66
2023/08/24 10:42:14;;;;;;;3.63;1.80;;;;;;;;;;5045954;28;20028;-70
2023/08/24 10:44:41;;;;;;;4.35;1.90;;;;;;;;;;5051232;28;21376;-64
2023/08/24 10:47:15;;;;;;;2.17;1.98;;;;;;;;;;5048656;28;20063;-64
2023/08/24 10:49:42;;;;;;;1.60;1.50;;;;;;;;;;5054602;28;20056;-67
2023/08/24 10:52:19;;;;;;;3.05;1.67;;;;;;;;;;5052558;28;20021;-68
2023/08/24 10:54:48;;;;;;;3.83;1.92;;;;;;;;;;5046771;28;20056;-67
2023/08/24 10:57:21;;;;;;;2.15;1.58;;;;;;;;;;5052026;28;20025;-67
2023/08/24 10:59:59;;;;;;;2.65;1.70;;;;;;;;;;5049771;28;20032;-68
2023/08/24 11:02:25;;;;;;;3.50;1.90;;;;;;;;;;5053657;28;20020;-68
2023/08/24 11:05:06;;;;;;;3.05;1.52;;;;;;;;;;5053758;28;20028;-68
2023/08/24 11:07:33;;;;;;;3.45;1.60;;;;;;;;;;5047295;28;20032;-69
2023/08/24 11:09:59;;;;;;;1.90;1.45;;;;;;;;;;5049113;28;20373;-69
2023/08/24 11:12:25;;;;;;;3.92;1.55;;;;;;;;;;5040218;28;20025;-69
2023/08/24 11:14:54;;;;;;;3.53;1.55;;;;;;;;;;5037062;28;20020;-69
2023/08/24 11:17:22;;;;;;;2.55;1.70;;;;;;;;;;5039951;28;20155;-69
2023/08/24 11:19:52;;;;;;;2.72;1.67;;;;;;;;;;5044905;28;20399;-69
2023/08/24 11:22:19;;;;;;;3.65;1.67;;;;;;;;;;5043415;28;20049;-69
2023/08/24 11:24:46;;;;;;;2.58;1.50;;;;;;;;;;5042944;28;20033;-68
2023/08/24 11:27:12;;;;;;;1.60;1.50;;;;;;;;;;5046252;28;20039;-69
2023/08/24 11:29:38;;;;;;;2.30;1.60;;;;;;;;;;5053882;28;20029;-69
2023/08/24 11:32:06;;;;;;;1.75;1.52;;;;;;;;;;5043159;28;20025;-69
2023/08/24 11:34:35;;;;;;;1.65;1.55;;;;;;;;;;5050297;28;20025;-70
2023/08/24 11:37:02;;;;;;;1.60;1.50;;;;;;;;;;5047933;28;20029;-68
2023/08/24 11:39:32;;;;;;;2.22;1.77;;;;;;;;;;5038560;28;20085;-67
2023/08/24 11:41:59;;;;;;;3.08;1.58;;;;;;;;;;5047035;28;20071;-69
2023/08/24 11:44:49;;;;;;;1.75;1.48;;;;;;;;;;5038125;28;20038;-68
2023/08/24 11:47:33;;;;;;;2.08;1.58;;;;;;;;;;5020330;28;20124;-68
2023/08/24 11:49:59;;;;;;;5.10;1.70;;;;;;;;;;5052427;28;20087;-65
2023/08/24 11:52:26;;;;;;;2.67;2.10;;;;;;;;;;5048882;28;20028;-64
2023/08/24 11:54:52;;;;;;;1.50;1.40;;;;;;;;;;5055206;28;20105;-64
2023/08/24 11:57:18;;;;;;;2.80;1.30;;;;;;;;;;5050120;28;20024;-65
2023/08/24 11:59:45;;;;;;;2.17;1.60;;;;;;;;;;5056328;28;20039;-65
2023/08/24 12:02:12;;;;;;;3.97;1.70;;;;;;;;;;5052320;28;20450;-65
2023/08/24 12:04:39;;;;;;;2.47;1.65;;;;;;;;;;5051463;28;20118;-65
2023/08/24 12:07:14;;;;;;;2.05;1.73;;;;;;;;;;5054529;28;20028;-64
2023/08/24 12:09:41;;;;;;;4.00;1.50;;;;;;;;;;5045526;28;21684;-64
2023/08/24 12:12:13;;;;;;;2.47;1.58;;;;;;;;;;5048139;28;20512;-64
2023/08/24 12:14:43;;;;;;;2.63;1.50;;;;;;;;;;5050552;28;20037;-64
2023/08/24 12:17:12;;;;;;;1.38;1.33;;;;;;;;;;5057891;28;20046;-65
2023/08/24 12:19:58;;;;;;;2.33;1.65;;;;;;;;;;5049290;28;20151;-70
2023/08/24 12:22:25;;;;;;;1.67;1.58;;;;;;;;;;5041284;28;20032;-68
2023/08/24 12:24:51;;;;;;;3.88;1.40;;;;;;;;;;5058945;28;20115;-67
2023/08/24 12:27:21;;;;;;;2.60;1.40;;;;;;;;;;5055044;28;20400;-66
2023/08/24 12:29:47;;;;;;;1.25;1.25;;;;;;;;;;5055450;28;20024;-66
2023/08/24 12:32:15;;;;;;;5.07;1.85;;;;;;;;;;5056619;28;20098;-67
2023/08/24 12:34:42;;;;;;;2.35;1.80;;;;;;;;;;5055947;28;20440;-66
2023/08/24 12:37:09;;;;;;;3.05;1.70;;;;;;;;;;5073737;28;20496;-68
2023/08/24 12:39:36;;;;;;;2.72;1.80;;;;;;;;;;5077637;28;20034;-70
2023/08/24 12:42:03;;;;;;;2.35;2.15;;;;;;;;;;5075504;28;20115;-70
2023/08/24 12:44:29;;;;;;;2.35;2.13;;;;;;;;;;5076996;28;20032;-71
2023/08/24 12:46:55;;;;;;;1.23;1.02;;;;;;;;;;5075727;28;20036;-69
2023/08/24 12:49:22;;;;;;;2.47;1.40;;;;;;;;;;5074647;28;20027;-68
2023/08/24 12:51:48;;;;;;;2.00;1.40;;;;;;;;;;5076202;28;20028;-68
2023/08/24 12:54:14;;;;;;;1.40;1.30;;;;;;;;;;5066184;28;20032;-67
2023/08/24 12:56:40;;;;;;;1.35;1.20;;;;;;;;;;5074247;28;20031;-67
2023/08/24 12:59:07;;;;;;;1.27;1.10;;;;;;;;;;5078639;28;20654;-67
2023/08/24 13:01:33;;;;;;;2.10;1.27;;;;;;;;;;5074871;28;20535;-67
2023/08/24 13:04:00;;;;;;;2.55;1.52;;;;;;;;;;5064454;28;20057;-68
2023/08/24 13:06:26;;;;;;;2.28;1.60;;;;;;;;;;5076331;28;20035;-67
2023/08/24 13:08:55;;;;;;;1.45;1.35;;;;;;;;;;5077091;28;20035;-67
2023/08/24 13:11:22;;;;;;;1.88;1.70;;;;;;;;;;5079351;28;20057;-66
2023/08/24 13:13:48;;;;;;;2.28;1.98;;;;;;;;;;5073820;28;20036;-66
2023/08/24 13:16:15;;;;;;;2.75;1.83;;;;;;;;;;5071743;28;20039;-66
2023/08/24 13:18:42;;;;;;;2.42;1.80;;;;;;;;;;5092683;27;20523;-67
2023/08/24 13:21:08;;;;;;;6.28;1.77;;;;;;;;;;5077931;28;20028;-67
2023/08/24 13:23:34;;;;;;;1.75;1.60;;;;;;;;;;5074753;28;20396;-68
2023/08/24 13:26:00;;;;;;;2.33;1.63;;;;;;;;;;5077941;28;20043;-68
2023/08/24 13:28:27;;;;;;;2.53;1.42;;;;;;;;;;5073147;28;20055;-68
2023/08/24 13:30:53;;;;;;;1.65;1.50;;;;;;;;;;5077822;28;20085;-68
2023/08/24 13:33:20;;;;;;;1.60;1.50;;;;;;;;;;5078358;28;20085;-66
2023/08/24 13:35:46;;;;;;;1.80;1.52;;;;;;;;;;5078896;28;20075;-66
2023/08/24 13:38:12;;;;;;;3.10;1.65;;;;;;;;;;5076300;28;20120;-67
2023/08/24 13:40:38;;;;;;;1.30;1.20;;;;;;;;;;5075079;28;20036;-68
2023/08/24 13:43:04;;;;;;;1.75;1.63;;;;;;;;;;5078729;28;20024;-67
2023/08/24 13:45:31;;;;;;;2.50;1.48;;;;;;;;;;5072281;28;20503;-66
2023/08/24 13:47:57;;;;;;;1.92;1.63;;;;;;;;;;5077547;28;20036;-68
2023/08/24 13:50:23;;;;;;;1.88;1.33;;;;;;;;;;5074113;28;20032;-68
2023/08/24 13:52:50;;;;;;;1.95;1.63;;;;;;;;;;5075564;28;20052;-68
2023/08/24 13:55:16;;;;;;;5.15;1.70;;;;;;;;;;5075555;28;20039;-67
2023/08/24 13:57:43;;;;;;;1.98;1.70;;;;;;;;;;5077331;28;20358;-68
2023/08/24 14:00:11;;;;;;;2.08;1.60;;;;;;;;;;5052157;28;20284;-68
2023/08/24 14:02:37;;;;;;;3.17;1.90;;;;;;;;;;5057055;28;20037;-68
2023/08/24 14:05:06;;;;;;;1.58;1.48;;;;;;;;;;5074688;28;20093;-68
2023/08/24 14:07:32;;;;;;;1.92;1.40;;;;;;;;;;5074342;28;20032;-68
2023/08/24 14:10:00;;;;;;;1.40;1.30;;;;;;;;;;5058026;28;20024;-68
2023/08/24 14:12:27;;;;;;;1.13;1.05;;;;;;;;;;5076698;28;20540;-68
2023/08/24 14:14:53;;;;;;;1.35;1.05;;;;;;;;;;5077925;28;20024;-68
2023/08/24 14:17:19;;;;;;;1.58;1.48;;;;;;;;;;5069507;28;20032;-67
2023/08/24 14:19:45;;;;;;;3.33;1.60;;;;;;;;;;5070368;28;20027;-68
2023/08/24 14:22:12;;;;;;;1.42;1.30;;;;;;;;;;5066129;28;20107;-68
2023/08/24 14:24:38;;;;;;;1.88;1.20;;;;;;;;;;5059824;28;20402;-69
2023/08/24 14:27:04;;;;;;;2.60;1.45;;;;;;;;;;5065862;28;20664;-68
2023/08/24 14:29:30;;;;;;;1.85;1.40;;;;;;;;;;5072047;28;20333;-67
2023/08/24 14:31:57;;;;;;;2.95;1.23;;;;;;;;;;5058067;28;20396;-68
2023/08/24 14:34:23;;;;;;;3.15;1.20;;;;;;;;;;5065942;28;20032;-68
2023/08/24 14:36:49;;;;;;;3.22;1.60;;;;;;;;;;5058176;28;20044;-68
2023/08/24 14:39:15;;;;;;;2.08;1.20;;;;;;;;;;5041882;28;20161;-68
2023/08/24 14:41:41;;;;;;;1.15;1.13;;;;;;;;;;5064345;28;20118;-68
2023/08/24 14:44:08;;;;;;;1.73;1.63;;;;;;;;;;5063775;28;20078;-68